createdAt,value
2022-12-25T00:00:07.627Z,101394.06
2022-12-25T00:02:35.580Z,101396.69
2022-12-25T00:05:02.806Z,101394.94
2022-12-25T00:07:30.015Z,101392.31
2022-12-25T00:09:57.051Z,101394.94
2022-12-25T00:12:24.464Z,101388.78
2022-12-25T00:14:51.475Z,101387.88
2022-12-25T00:17:18.456Z,101387.00
2022-12-25T00:19:45.454Z,101383.50
2022-12-25T00:22:12.480Z,101388.72
2022-12-25T00:24:40.572Z,101385.22
2022-12-25T00:27:07.863Z,101380.81
2022-12-25T00:29:35.761Z,101379.03
2022-12-25T00:32:02.832Z,101370.28
2022-12-25T00:34:30.835Z,101364.13
2022-12-25T00:36:57.861Z,101369.31
2022-12-25T00:39:25.040Z,101376.31
2022-12-25T00:42:11.025Z,101374.56
2022-12-25T00:44:38.082Z,101377.19
2022-12-25T00:47:05.184Z,101380.63
2022-12-25T00:49:32.281Z,101365.75
2022-12-25T00:51:59.771Z,101368.38
2022-12-25T00:54:26.760Z,101364.81
2022-12-25T00:56:53.809Z,101371.81
2022-12-25T00:59:20.886Z,101372.66
2022-12-25T01:01:48.065Z,101362.09
2022-12-25T01:04:15.380Z,101369.94
2022-12-25T01:06:42.516Z,101378.66
2022-12-25T01:09:30.126Z,101368.09
2022-12-25T01:11:57.125Z,101364.56
2022-12-25T01:14:24.137Z,101361.03
2022-12-25T01:16:51.195Z,101356.63
2022-12-25T01:19:18.149Z,101354.00
2022-12-25T01:21:45.118Z,101367.09
2022-12-25T01:24:13.068Z,101374.09
2022-12-25T01:26:40.052Z,101367.09
2022-12-25T01:29:07.111Z,101372.34
2022-12-25T01:31:34.152Z,101376.69
2022-12-25T01:34:01.245Z,101372.28
2022-12-25T01:36:28.213Z,101374.91
2022-12-25T01:38:56.318Z,101374.06
2022-12-25T01:41:25.008Z,101383.69
2022-12-25T01:44:14.652Z,101380.16
2022-12-25T01:46:43.715Z,101384.56
2022-12-25T01:49:16.827Z,101380.16
2022-12-25T01:51:55.813Z,101388.03
2022-12-25T01:55:04.015Z,101382.78
2022-12-25T01:57:36.037Z,101387.16
2022-12-25T02:00:06.417Z,101384.56
2022-12-25T02:02:34.865Z,101384.59
2022-12-25T02:05:25.952Z,101395.09
2022-12-25T02:07:57.884Z,101396.00
2022-12-25T02:10:26.348Z,101388.13
2022-12-25T02:12:53.461Z,101399.50
2022-12-25T02:15:30.443Z,101402.09
2022-12-25T02:18:16.620Z,101404.72
2022-12-25T02:21:33.527Z,101395.09
2022-12-25T02:24:56.241Z,101395.94
2022-12-25T02:27:44.300Z,101401.19
2022-12-25T02:30:12.418Z,101391.50
2022-12-25T02:33:24.686Z,101391.50
2022-12-25T02:35:57.038Z,101404.63
2022-12-25T02:38:39.019Z,101393.22
2022-12-25T02:41:15.743Z,101395.00
2022-12-25T02:44:22.335Z,101395.88
2022-12-25T02:47:09.318Z,101395.03
2022-12-25T02:49:58.352Z,101395.94
2022-12-25T02:52:48.345Z,101401.16
2022-12-25T02:55:43.289Z,101387.19
2022-12-25T02:58:34.899Z,101379.31
2022-12-25T03:01:35.727Z,101380.19
2022-12-25T03:04:30.003Z,101372.34
2022-12-25T03:07:16.184Z,101362.72
2022-12-25T03:10:10.604Z,101364.53
2022-12-25T03:12:46.392Z,101355.81
2022-12-25T03:15:32.693Z,101344.44
2022-12-25T03:18:05.225Z,101337.50
2022-12-25T03:20:52.251Z,101319.19
2022-12-25T03:23:45.571Z,101321.91
2022-12-25T03:26:31.394Z,101307.09
2022-12-25T03:28:58.468Z,101299.31
2022-12-25T03:31:51.511Z,101295.84
2022-12-25T03:35:07.764Z,101309.91
2022-12-25T03:38:13.577Z,101302.09
2022-12-25T03:41:37.808Z,101298.59
2022-12-25T03:44:43.140Z,101295.16
2022-12-25T03:47:37.509Z,101284.72
2022-12-25T03:50:37.405Z,101287.41
2022-12-25T03:54:06.330Z,101286.59
2022-12-25T03:56:54.398Z,101298.94
2022-12-25T03:59:42.308Z,101301.56
2022-12-25T04:02:28.848Z,101312.09
2022-12-25T04:05:14.955Z,101306.84
2022-12-25T04:08:00.889Z,101304.28
2022-12-25T04:10:46.655Z,101304.28
2022-12-25T04:13:33.591Z,101297.31
2022-12-25T04:16:19.367Z,101298.22
2022-12-25T04:19:05.103Z,101300.00
2022-12-25T04:21:50.778Z,101293.91
2022-12-25T04:24:36.609Z,101298.31
2022-12-25T04:27:22.358Z,101310.56
2022-12-25T04:30:07.789Z,101310.59
2022-12-25T04:32:54.542Z,101298.34
2022-12-25T04:35:43.202Z,101297.50
2022-12-25T04:38:12.227Z,101301.03
2022-12-25T04:40:39.147Z,101294.94
2022-12-25T04:43:06.174Z,101304.56
2022-12-25T04:45:35.189Z,101304.56
2022-12-25T04:48:02.147Z,101307.22
2022-12-25T04:50:29.191Z,101312.47
2022-12-25T04:52:56.214Z,101308.13
2022-12-25T04:55:23.141Z,101313.38
2022-12-25T04:57:50.039Z,101307.28
2022-12-25T05:00:17.712Z,101305.53
2022-12-25T05:02:44.873Z,101294.22
2022-12-25T05:05:11.974Z,101295.13
2022-12-25T05:07:38.865Z,101302.16
2022-12-25T05:10:06.862Z,101303.09
2022-12-25T05:12:33.907Z,101297.88
2022-12-25T05:15:00.939Z,101296.16
2022-12-25T05:17:27.980Z,101298.81
2022-12-25T05:19:55.022Z,101302.31
2022-12-25T05:22:22.035Z,101299.69
2022-12-25T05:24:49.032Z,101300.63
2022-12-25T05:27:16.199Z,101292.75
2022-12-25T05:29:43.226Z,101301.44
2022-12-25T05:32:10.241Z,101290.94
2022-12-25T05:34:37.288Z,101289.19
2022-12-25T05:37:04.355Z,101279.56
2022-12-25T05:39:31.381Z,101274.34
2022-12-25T05:42:00.403Z,101270.84
2022-12-25T05:44:28.408Z,101265.63
2022-12-25T05:47:20.986Z,101263.03
2022-12-25T05:49:48.037Z,101253.44
2022-12-25T05:52:15.994Z,101256.03
2022-12-25T05:54:44.091Z,101262.16
2022-12-25T05:57:11.039Z,101250.75
2022-12-25T05:59:39.037Z,101255.94
2022-12-25T06:02:06.113Z,101254.16
2022-12-25T06:04:33.265Z,101253.22
2022-12-25T06:07:00.270Z,101251.44
2022-12-25T06:09:27.394Z,101255.75
2022-12-25T06:11:54.468Z,101262.72
2022-12-25T06:14:21.449Z,101253.94
2022-12-25T06:16:52.822Z,101241.63
2022-12-25T06:19:21.644Z,101234.59
2022-12-25T06:21:48.822Z,101226.72
2022-12-25T06:24:20.996Z,101222.28
2022-12-25T06:26:48.857Z,101222.22
2022-12-25T06:29:16.421Z,101221.28
2022-12-25T06:31:43.620Z,101228.25
2022-12-25T06:34:10.693Z,101236.94
2022-12-25T06:36:38.286Z,101228.16
2022-12-25T06:39:05.329Z,101216.72
2022-12-25T06:41:33.627Z,101207.91
2022-12-25T06:44:02.407Z,101201.72
2022-12-25T06:46:30.941Z,101206.91
2022-12-25T06:49:00.240Z,101206.84
2022-12-25T06:51:33.350Z,101206.81
2022-12-25T06:54:04.857Z,101191.91
2022-12-25T06:56:33.782Z,101178.72
2022-12-25T06:59:05.605Z,101176.06
2022-12-25T07:01:53.532Z,101171.69
2022-12-25T07:04:38.714Z,101171.66
2022-12-25T07:07:09.602Z,101176.00
2022-12-25T07:09:42.380Z,101164.59
2022-12-25T07:12:23.202Z,101147.91
2022-12-25T07:14:54.232Z,101149.66
2022-12-25T07:17:22.372Z,101152.28
2022-12-25T07:19:51.615Z,101157.47
2022-12-25T07:22:18.813Z,101162.72
2022-12-25T07:24:45.759Z,101156.56
2022-12-25T07:27:13.153Z,101163.53
2022-12-25T07:29:40.185Z,101160.91
2022-12-25T07:32:07.354Z,101168.72
2022-12-25T07:34:34.438Z,101171.28
2022-12-25T07:37:01.543Z,101179.94
2022-12-25T07:39:28.896Z,101189.56
2022-12-25T07:41:55.985Z,101185.16
2022-12-25T07:44:26.438Z,101191.22
2022-12-25T07:46:53.493Z,101183.28
2022-12-25T07:49:20.892Z,101190.19
2022-12-25T07:51:48.049Z,101196.22
2022-12-25T07:54:15.064Z,101191.78
2022-12-25T07:56:42.080Z,101197.03
2022-12-25T07:59:10.142Z,101169.84
2022-12-25T08:01:39.514Z,101146.84
2022-12-25T08:04:08.252Z,101147.56
2022-12-25T08:06:38.248Z,101153.63
2022-12-25T08:09:12.700Z,101165.06
2022-12-25T08:11:45.773Z,101173.00
2022-12-25T08:14:13.667Z,101197.59
2022-12-25T08:16:42.129Z,101216.00
2022-12-25T08:19:09.658Z,101216.84
2022-12-25T08:21:37.598Z,101211.59
2022-12-25T08:24:04.866Z,101201.91
2022-12-25T08:26:31.921Z,101205.44
2022-12-25T08:28:59.002Z,101214.19
2022-12-25T08:31:29.598Z,101223.84
2022-12-25T08:33:58.986Z,101222.97
2022-12-25T08:36:26.632Z,101215.09
2022-12-25T08:39:00.322Z,101208.94
2022-12-25T08:41:31.307Z,101198.44
2022-12-25T08:44:22.905Z,101196.69
2022-12-25T08:46:50.952Z,101198.44
2022-12-25T08:49:18.087Z,101192.28
2022-12-25T08:51:45.740Z,101187.00
2022-12-25T08:54:12.848Z,101186.91
2022-12-25T08:56:40.031Z,101196.50
2022-12-25T08:59:07.081Z,101203.47
2022-12-25T09:01:34.195Z,101206.94
2022-12-25T09:04:03.315Z,101206.00
2022-12-25T09:06:34.813Z,101203.38
2022-12-25T09:09:01.915Z,101206.84
2022-12-25T09:11:28.898Z,101209.41
2022-12-25T09:13:55.942Z,101195.31
2022-12-25T09:16:24.252Z,101197.03
2022-12-25T09:18:51.655Z,101190.88
2022-12-25T09:21:19.517Z,101196.16
2022-12-25T09:23:46.684Z,101181.28
2022-12-25T09:26:17.907Z,101172.50
2022-12-25T09:28:51.257Z,101190.06
2022-12-25T09:31:22.372Z,101201.44
2022-12-25T09:33:51.213Z,101198.75
2022-12-25T09:36:18.273Z,101206.69
2022-12-25T09:38:48.411Z,101207.59
2022-12-25T09:41:33.865Z,101207.66
2022-12-25T09:44:20.099Z,101184.13
2022-12-25T09:46:55.966Z,101186.88
2022-12-25T09:49:23.011Z,101206.19
2022-12-25T09:52:02.597Z,101188.69
2022-12-25T09:55:04.828Z,101175.59
2022-12-25T09:57:32.834Z,101169.56
2022-12-25T10:00:01.137Z,101153.84
2022-12-25T10:02:56.991Z,101165.22
2022-12-25T10:06:01.939Z,101168.75
2022-12-25T10:08:54.827Z,101157.44
2022-12-25T10:11:57.386Z,101139.88
2022-12-25T10:14:33.318Z,101148.66
2022-12-25T10:18:08.481Z,101134.59
2022-12-25T10:20:56.942Z,101146.84
2022-12-25T10:23:35.686Z,101159.97
2022-12-25T10:26:12.154Z,101143.38
2022-12-25T10:28:47.517Z,101142.47
2022-12-25T10:31:21.778Z,101131.09
2022-12-25T10:33:52.681Z,101120.56
2022-12-25T10:36:27.086Z,101123.19
2022-12-25T10:38:54.846Z,101132.81
2022-12-25T10:42:00.320Z,101117.88
2022-12-25T10:44:27.406Z,101125.81
2022-12-25T10:46:59.035Z,101131.97
2022-12-25T10:49:34.143Z,101111.78
2022-12-25T10:52:02.608Z,101111.78
2022-12-25T10:54:35.118Z,101114.41
2022-12-25T10:57:29.214Z,101116.97
2022-12-25T11:00:01.705Z,101119.59
2022-12-25T11:02:36.548Z,101129.25
2022-12-25T11:05:19.153Z,101124.84
2022-12-25T11:07:54.252Z,101115.19
2022-12-25T11:10:26.551Z,101095.00
2022-12-25T11:12:54.703Z,101085.31
2022-12-25T11:15:45.965Z,101065.09
2022-12-25T11:18:26.117Z,101061.56
2022-12-25T11:21:02.576Z,101058.97
2022-12-25T11:23:33.030Z,101070.31
2022-12-25T11:26:07.818Z,101068.56
2022-12-25T11:28:40.446Z,101051.91
2022-12-25T11:31:19.163Z,101052.81
2022-12-25T11:33:53.368Z,101046.66
2022-12-25T11:36:29.334Z,101047.50
2022-12-25T11:39:09.014Z,101047.44
2022-12-25T11:41:38.804Z,101039.47
2022-12-25T11:44:33.560Z,101030.69
2022-12-25T11:47:13.092Z,101030.59
2022-12-25T11:50:00.985Z,101021.78
2022-12-25T11:52:37.095Z,101019.97
2022-12-25T11:55:18.716Z,101013.00
2022-12-25T11:57:54.756Z,101023.56
2022-12-25T12:00:22.913Z,101013.94
2022-12-25T12:03:02.714Z,101002.47
2022-12-25T12:05:43.209Z,101007.72
2022-12-25T12:08:11.760Z,101000.69
2022-12-25T12:11:39.882Z,101001.56
2022-12-25T12:14:43.093Z,100994.59
2022-12-25T12:17:14.756Z,100985.91
2022-12-25T12:19:42.392Z,100982.44
2022-12-25T12:22:36.105Z,100973.63
2022-12-25T12:25:07.826Z,100964.91
2022-12-25T12:27:40.377Z,100978.94
2022-12-25T12:30:31.549Z,100971.94
2022-12-25T12:33:04.581Z,100969.34
2022-12-25T12:35:37.067Z,100962.31
2022-12-25T12:38:15.166Z,100966.69
2022-12-25T12:40:53.058Z,100968.47
2022-12-25T12:43:36.436Z,100965.00
2022-12-25T12:46:30.582Z,100967.63
2022-12-25T12:49:20.556Z,100954.56
2022-12-25T12:51:48.384Z,100951.91
2022-12-25T12:54:22.044Z,100941.31
2022-12-25T12:57:22.953Z,100934.22
2022-12-25T12:59:50.086Z,100929.75
2022-12-25T13:02:53.152Z,100928.75
2022-12-25T13:05:48.847Z,100927.84
2022-12-25T13:09:02.642Z,100931.31
2022-12-25T13:11:38.824Z,100932.22
2022-12-25T13:14:06.365Z,100932.22
2022-12-25T13:16:39.560Z,100933.06
2022-12-25T13:19:14.362Z,100926.94
2022-12-25T13:21:55.717Z,100917.31
2022-12-25T13:24:27.531Z,100924.22
2022-12-25T13:26:55.329Z,100917.22
2022-12-25T13:29:38.665Z,100920.69
2022-12-25T13:32:19.072Z,100912.84
2022-12-25T13:34:46.833Z,100918.16
2022-12-25T13:37:17.775Z,100914.59
2022-12-25T13:39:53.320Z,100905.84
2022-12-25T13:42:27.149Z,100891.84
2022-12-25T13:45:06.479Z,100894.50
2022-12-25T13:47:40.699Z,100884.88
2022-12-25T13:50:23.260Z,100871.66
2022-12-25T13:52:52.182Z,100868.19
2022-12-25T13:55:26.721Z,100875.16
2022-12-25T13:58:03.493Z,100872.53
2022-12-25T14:00:45.132Z,100871.72
2022-12-25T14:03:48.082Z,100881.28
2022-12-25T14:06:26.028Z,100883.97
2022-12-25T14:08:56.978Z,100869.09
2022-12-25T14:11:28.313Z,100863.78
2022-12-25T14:14:07.271Z,100866.41
2022-12-25T14:16:35.115Z,100851.47
2022-12-25T14:19:32.371Z,100859.34
2022-12-25T14:22:12.795Z,100856.78
2022-12-25T14:24:40.565Z,100853.25
2022-12-25T14:27:22.356Z,100859.38
2022-12-25T14:29:56.581Z,100857.66
2022-12-25T14:32:27.395Z,100846.31
2022-12-25T14:35:02.758Z,100855.06
2022-12-25T14:37:33.280Z,100856.84
2022-12-25T14:40:19.388Z,100846.34
2022-12-25T14:42:59.462Z,100850.69
2022-12-25T14:45:38.474Z,100841.00
2022-12-25T14:48:25.181Z,100840.16
2022-12-25T14:51:05.063Z,100830.53
2022-12-25T14:53:49.072Z,100816.50
2022-12-25T14:56:21.908Z,100814.78
2022-12-25T14:58:53.737Z,100823.56
2022-12-25T15:01:33.332Z,100814.81
2022-12-25T15:04:15.159Z,100815.72
2022-12-25T15:06:55.204Z,100820.13
2022-12-25T15:09:23.894Z,100823.59
2022-12-25T15:11:56.022Z,100821.81
2022-12-25T15:14:24.440Z,100828.81
2022-12-25T15:16:56.524Z,100838.38
2022-12-25T15:19:36.944Z,100836.63
2022-12-25T15:22:05.612Z,100838.34
2022-12-25T15:24:32.876Z,100842.69
2022-12-25T15:27:02.945Z,100840.03
2022-12-25T15:30:07.923Z,100826.91
2022-12-25T15:32:21.308Z,100836.53
2022-12-25T15:34:49.937Z,100828.69
2022-12-25T15:37:18.962Z,100827.00
2022-12-25T15:39:46.804Z,100834.06
2022-12-25T15:42:19.563Z,100837.53
2022-12-25T15:44:46.769Z,100827.06
2022-12-25T15:47:17.743Z,100833.28
2022-12-25T15:49:44.875Z,100823.66
2022-12-25T15:52:16.641Z,100824.50
2022-12-25T15:54:44.699Z,100826.31
2022-12-25T15:57:22.705Z,100816.72
2022-12-25T15:59:49.891Z,100816.81
2022-12-25T16:02:20.699Z,100824.72
2022-12-25T16:04:51.102Z,100812.56
2022-12-25T16:07:23.422Z,100807.38
2022-12-25T16:09:52.079Z,100813.53
2022-12-25T16:12:21.054Z,100821.34
2022-12-25T16:14:52.121Z,100820.41
2022-12-25T16:17:21.335Z,100815.94
2022-12-25T16:19:48.413Z,100815.09
2022-12-25T16:22:26.089Z,100819.47
2022-12-25T16:24:53.746Z,100824.72
2022-12-25T16:27:21.645Z,100819.47
2022-12-25T16:29:48.709Z,100813.44
2022-12-25T16:32:16.772Z,100813.47
2022-12-25T16:34:44.009Z,100818.72
2022-12-25T16:37:12.116Z,100815.28
2022-12-25T16:39:39.168Z,100815.31
2022-12-25T16:42:07.896Z,100804.81
2022-12-25T16:44:37.461Z,100810.06
2022-12-25T16:47:04.717Z,100805.69
2022-12-25T16:49:33.869Z,100810.06
2022-12-25T16:52:00.937Z,100802.16
2022-12-25T16:54:28.035Z,100797.75
2022-12-25T16:57:01.074Z,100793.41
2022-12-25T16:59:30.617Z,100793.44
2022-12-25T17:01:57.735Z,100798.72
2022-12-25T17:04:25.315Z,100807.44
2022-12-25T17:06:52.349Z,100780.25
2022-12-25T17:09:19.424Z,100786.47
2022-12-25T17:11:46.475Z,100796.19
2022-12-25T17:14:13.571Z,100800.56
2022-12-25T17:16:40.703Z,100784.78
2022-12-25T17:19:21.120Z,100773.38
2022-12-25T17:21:48.546Z,100776.06
2022-12-25T17:24:16.517Z,100775.22
2022-12-25T17:26:44.659Z,100783.97
2022-12-25T17:29:17.192Z,100789.22
2022-12-25T17:31:48.697Z,100797.03
2022-12-25T17:34:15.949Z,100796.97
2022-12-25T17:36:44.031Z,100804.81
2022-12-25T17:39:15.157Z,100808.28
2022-12-25T17:41:42.223Z,100803.06
2022-12-25T17:44:12.986Z,100800.44
2022-12-25T17:46:41.422Z,100802.22
2022-12-25T17:49:15.413Z,100803.06
2022-12-25T17:51:42.567Z,100792.56
2022-12-25T17:54:10.067Z,100788.19
2022-12-25T17:56:37.642Z,100791.72
2022-12-25T17:59:08.329Z,100790.03
2022-12-25T18:01:38.881Z,100792.63
2022-12-25T18:04:10.283Z,100797.81
2022-12-25T18:06:40.310Z,100790.78
2022-12-25T18:09:07.618Z,100793.41
2022-12-25T18:11:40.612Z,100784.66
2022-12-25T18:14:12.667Z,100785.56
2022-12-25T18:16:43.431Z,100777.69
2022-12-25T18:19:17.764Z,100773.28
2022-12-25T18:21:44.960Z,100761.13
2022-12-25T18:24:14.489Z,100763.69
2022-12-25T18:26:41.625Z,100769.78
2022-12-25T18:29:10.306Z,100772.38
2022-12-25T18:31:37.543Z,100772.31
2022-12-25T18:34:04.716Z,100766.22
2022-12-25T18:36:32.440Z,100773.16
2022-12-25T18:38:59.989Z,100767.91
2022-12-25T18:41:28.739Z,100779.31
2022-12-25T18:43:56.923Z,100773.16
2022-12-25T18:46:27.823Z,100780.19
2022-12-25T18:48:59.828Z,100786.31
2022-12-25T18:51:33.087Z,100784.56
2022-12-25T18:54:04.061Z,100785.47
2022-12-25T18:56:31.216Z,100795.06
2022-12-25T18:59:04.644Z,100784.56
2022-12-25T19:01:31.762Z,100779.31
2022-12-25T19:04:04.493Z,100795.03
2022-12-25T19:06:33.404Z,100788.88
2022-12-25T19:09:00.714Z,100792.34
2022-12-25T19:11:27.939Z,100786.13
2022-12-25T19:13:57.296Z,100791.34
2022-12-25T19:16:24.383Z,100791.31
2022-12-25T19:18:54.725Z,100785.13
2022-12-25T19:21:24.087Z,100779.81
2022-12-25T19:23:54.119Z,100778.06
2022-12-25T19:26:22.569Z,100777.13
2022-12-25T19:28:49.628Z,100780.59
2022-12-25T19:31:16.838Z,100780.53
2022-12-25T19:33:44.499Z,100780.53
2022-12-25T19:36:15.931Z,100786.56
2022-12-25T19:38:44.197Z,100781.28
2022-12-25T19:41:19.303Z,100778.56
2022-12-25T19:43:52.560Z,100784.72
2022-12-25T19:46:28.680Z,100787.34
2022-12-25T19:48:57.687Z,100783.75
2022-12-25T19:51:49.558Z,100780.22
2022-12-25T19:54:20.465Z,100783.72
2022-12-25T19:56:49.049Z,100794.22
2022-12-25T19:59:16.284Z,100788.94
2022-12-25T20:01:43.812Z,100788.91
2022-12-25T20:04:11.410Z,100799.41
2022-12-25T20:06:45.321Z,100801.09
2022-12-25T20:09:21.188Z,100807.25
2022-12-25T20:11:48.987Z,100803.78
2022-12-25T20:14:17.362Z,100824.75
2022-12-25T20:16:44.706Z,100808.94
2022-12-25T20:19:13.332Z,100808.06
2022-12-25T20:21:41.854Z,100809.81
2022-12-25T20:24:12.312Z,100817.66
2022-12-25T20:26:39.772Z,100821.22
2022-12-25T20:29:07.026Z,100821.22
2022-12-25T20:31:35.736Z,100808.06
2022-12-25T20:34:13.564Z,100809.78
2022-12-25T20:36:43.531Z,100830.00
2022-12-25T20:39:13.950Z,100833.50
2022-12-25T20:41:42.896Z,100821.22
2022-12-25T20:44:10.393Z,100815.91
2022-12-25T20:46:38.178Z,100810.72
2022-12-25T20:49:05.937Z,100818.50
2022-12-25T20:51:33.228Z,100807.97
2022-12-25T20:54:01.003Z,100807.91
2022-12-25T20:56:30.222Z,100816.66
2022-12-25T20:59:00.261Z,100816.56
2022-12-25T21:01:30.144Z,100820.88
2022-12-25T21:03:59.405Z,100821.78
2022-12-25T21:06:27.734Z,100821.78
2022-12-25T21:08:55.104Z,100815.69
2022-12-25T21:11:22.721Z,100822.69
2022-12-25T21:13:50.138Z,100827.94
2022-12-25T21:16:22.506Z,100815.63
2022-12-25T21:18:53.112Z,100823.50
2022-12-25T21:21:21.309Z,100827.75
2022-12-25T21:23:48.492Z,100831.28
2022-12-25T21:26:23.221Z,100845.22
2022-12-25T21:28:55.232Z,100838.22
2022-12-25T21:31:22.985Z,100849.56
2022-12-25T21:33:57.577Z,100846.00
2022-12-25T21:36:30.338Z,100845.16
2022-12-25T21:39:06.487Z,100851.19
2022-12-25T21:41:36.794Z,100860.84
2022-12-25T21:44:05.185Z,100861.66
2022-12-25T21:46:32.459Z,100874.81
2022-12-25T21:49:00.746Z,100876.59
2022-12-25T21:51:50.699Z,100880.91
2022-12-25T21:54:20.718Z,100889.66
2022-12-25T21:56:49.580Z,100875.66
2022-12-25T21:59:21.149Z,100873.03
2022-12-25T22:01:51.018Z,100866.88
2022-12-25T22:04:22.844Z,100879.13
2022-12-25T22:07:08.812Z,100865.13
2022-12-25T22:09:36.711Z,100869.56
2022-12-25T22:12:22.549Z,100876.59
2022-12-25T22:14:54.168Z,100868.72
2022-12-25T22:17:47.130Z,100882.72
2022-12-25T22:20:30.111Z,100892.41
2022-12-25T22:22:58.251Z,100889.72
2022-12-25T22:25:25.885Z,100895.88
2022-12-25T22:27:53.336Z,100897.63
2022-12-25T22:30:28.804Z,100915.13
2022-12-25T22:32:57.224Z,100923.94
2022-12-25T22:35:24.884Z,100919.53
2022-12-25T22:37:55.621Z,100916.88
2022-12-25T22:40:22.734Z,100910.72
2022-12-25T22:42:49.736Z,100911.63
2022-12-25T22:45:16.986Z,100909.88
2022-12-25T22:47:44.034Z,100899.34
2022-12-25T22:50:14.607Z,100894.94
2022-12-25T22:52:43.110Z,100900.19
2022-12-25T22:55:10.969Z,100900.19
2022-12-25T22:57:38.012Z,100895.81
2022-12-25T23:00:08.889Z,100889.66
2022-12-25T23:02:36.374Z,100897.63
2022-12-25T23:05:04.403Z,100887.09
2022-12-25T23:07:31.532Z,100894.16
2022-12-25T23:09:59.580Z,100902.94
2022-12-25T23:12:45.498Z,100899.41
2022-12-25T23:15:12.752Z,100914.31
2022-12-25T23:17:58.724Z,100895.03
2022-12-25T23:20:44.678Z,100896.84
2022-12-25T23:23:35.233Z,100887.25
2022-12-25T23:26:09.459Z,100889.91
2022-12-25T23:28:59.695Z,100879.38
2022-12-25T23:31:38.133Z,100887.25
2022-12-25T23:34:06.612Z,100867.13
2022-12-25T23:36:34.351Z,100873.25
2022-12-25T23:39:09.184Z,100871.47
2022-12-25T23:41:39.463Z,100868.00
2022-12-25T23:44:07.658Z,100879.34
2022-12-25T23:46:35.027Z,100875.84
2022-12-25T23:49:02.159Z,100878.53
2022-12-25T23:51:29.231Z,100882.00
2022-12-25T23:53:56.431Z,100883.75
2022-12-25T23:56:24.578Z,100891.59
2022-12-25T23:58:51.963Z,100901.19
